Time;durP1;ratioP1;P1;durP2;ratioP2;P2;SDS_P1;SDS_P2;PMS_P1;PMS_P2;Temp;Humidity;BMP_temperature;BMP_pressure;BME280_temperature;BME280_humidity;BME280_pressure;Samples;Min_cycle;Max_cycle;Signal;HPM_P1;HPM_P2
2023/05/28 00:02:12;;;;;;;9.18;5.53;;;18.00;98.80;;;;;;5025975;28;20516;-60
2023/05/28 00:04:38;;;;;;;16.27;6.47;;;18.10;98.80;;;;;;5020960;28;20116;-60
2023/05/28 00:07:04;;;;;;;12.40;5.70;;;18.00;98.80;;;;;;5025293;28;20046;-60
2023/05/28 00:09:29;;;;;;;13.65;6.50;;;18.00;98.80;;;;;;5026872;28;20327;-60
2023/05/28 00:11:56;;;;;;;17.13;7.45;;;17.90;98.80;;;;;;5027219;28;20052;-60
2023/05/28 00:14:22;;;;;;;13.35;6.20;;;17.90;98.80;;;;;;5023371;28;20046;-60
2023/05/28 00:16:50;;;;;;;14.07;7.22;;;17.80;98.90;;;;;;5022759;28;20042;-60
2023/05/28 00:19:16;;;;;;;14.25;6.30;;;17.80;99.00;;;;;;5025597;28;20045;-61
2023/05/28 00:21:42;;;;;;;11.60;5.90;;;17.70;99.00;;;;;;5056496;28;20041;-61
2023/05/28 00:24:08;;;;;;;16.60;5.82;;;17.70;99.10;;;;;;5021843;28;20056;-60
2023/05/28 00:26:37;;;;;;;13.00;5.97;;;17.70;99.10;;;;;;5023432;28;20038;-61
2023/05/28 00:29:03;;;;;;;17.92;6.90;;;17.60;99.10;;;;;;5022575;28;20046;-60
2023/05/28 00:31:28;;;;;;;16.20;6.65;;;17.60;99.20;;;;;;5008173;28;20037;-60
2023/05/28 00:33:56;;;;;;;14.32;7.00;;;17.60;99.20;;;;;;5025614;28;20049;-60
2023/05/28 00:36:22;;;;;;;11.70;6.50;;;17.50;99.30;;;;;;5055922;28;20046;-60
2023/05/28 00:38:48;;;;;;;14.10;5.70;;;17.50;99.30;;;;;;5023456;28;20571;-60
2023/05/28 00:41:19;;;;;;;13.77;6.32;;;17.40;99.30;;;;;;5024246;28;20041;-61
2023/05/28 00:43:46;;;;;;;9.75;4.97;;;17.40;99.30;;;;;;5024426;28;20072;-60
2023/05/28 00:46:12;;;;;;;11.25;6.25;;;17.40;99.40;;;;;;5017949;28;20062;-59
2023/05/28 00:48:38;;;;;;;18.95;6.70;;;17.30;99.40;;;;;;5019256;28;20046;-60
2023/05/28 00:51:04;;;;;;;13.70;6.47;;;17.30;99.50;;;;;;5025421;28;20149;-60
2023/05/28 00:53:30;;;;;;;15.07;5.82;;;17.30;99.50;;;;;;5026197;28;20081;-60
2023/05/28 00:55:57;;;;;;;19.38;6.55;;;17.30;99.50;;;;;;5025513;28;20045;-60
2023/05/28 00:58:25;;;;;;;13.60;6.93;;;17.20;99.50;;;;;;5023835;28;20037;-60
2023/05/28 01:00:50;;;;;;;11.23;6.28;;;17.20;99.50;;;;;;5020404;28;20116;-60
2023/05/28 01:03:16;;;;;;;18.52;6.30;;;17.10;99.60;;;;;;5025174;28;20037;-59
2023/05/28 01:05:42;;;;;;;10.63;5.45;;;17.10;99.60;;;;;;5054222;28;20116;-60
2023/05/28 01:08:08;;;;;;;14.60;6.10;;;17.10;99.60;;;;;;5025033;28;20049;-59
2023/05/28 01:10:35;;;;;;;14.68;6.13;;;17.00;99.70;;;;;;5020265;28;20061;-59
2023/05/28 01:13:04;;;;;;;17.27;6.90;;;16.90;99.80;;;;;;5025010;28;20061;-59
2023/05/28 01:15:31;;;;;;;12.43;6.78;;;16.90;99.90;;;;;;5023831;28;20508;-60
2023/05/28 01:17:59;;;;;;;16.65;7.55;;;16.80;99.90;;;;;;5023577;28;20046;-59
2023/05/28 01:20:29;;;;;;;19.85;7.13;;;16.80;99.90;;;;;;5025517;28;20045;-60
2023/05/28 01:23:00;;;;;;;10.52;6.30;;;16.80;99.90;;;;;;5023927;28;20046;-59
2023/05/28 01:25:26;;;;;;;12.15;6.00;;;16.80;99.90;;;;;;5023475;28;20153;-60
2023/05/28 01:27:54;;;;;;;12.57;5.85;;;16.80;99.90;;;;;;5024465;28;20045;-59
2023/05/28 01:30:20;;;;;;;14.35;6.72;;;16.80;99.90;;;;;;5021517;28;20801;-59
2023/05/28 01:32:46;;;;;;;12.68;5.38;;;16.70;99.90;;;;;;5021058;28;20044;-59
2023/05/28 01:35:12;;;;;;;11.25;4.93;;;16.70;99.90;;;;;;5024008;28;20045;-60
2023/05/28 01:37:41;;;;;;;12.68;6.07;;;16.60;99.90;;;;;;5024128;28;20671;-59
2023/05/28 01:40:08;;;;;;;14.15;8.20;;;16.60;99.90;;;;;;5020055;28;20630;-59
2023/05/28 01:42:35;;;;;;;11.23;6.38;;;16.60;99.90;;;;;;5024867;28;20716;-59
2023/05/28 01:45:02;;;;;;;12.60;5.82;;;16.60;99.90;;;;;;5024079;28;20184;-60
2023/05/28 01:47:29;;;;;;;12.30;6.22;;;16.60;99.90;;;;;;5021501;28;20046;-59
2023/05/28 01:49:55;;;;;;;20.42;7.00;;;16.50;99.90;;;;;;5020427;28;20985;-59
2023/05/28 01:52:21;;;;;;;12.82;5.93;;;16.40;99.90;;;;;;5024248;28;20505;-59
2023/05/28 01:54:46;;;;;;;14.50;5.57;;;16.40;99.90;;;;;;5020022;28;20042;-59
2023/05/28 01:57:12;;;;;;;13.55;6.03;;;16.40;99.90;;;;;;5025506;28;20053;-59
2023/05/28 01:59:38;;;;;;;14.73;6.28;;;16.40;99.90;;;;;;5023333;28;20068;-59
2023/05/28 02:02:05;;;;;;;20.90;7.90;;;16.40;99.90;;;;;;5024955;28;20494;-59
2023/05/28 02:04:30;;;;;;;17.85;8.10;;;16.40;99.90;;;;;;5021571;28;20062;-59
2023/05/28 02:06:56;;;;;;;13.77;6.18;;;16.30;99.90;;;;;;5021324;28;20424;-59
2023/05/28 02:09:22;;;;;;;13.18;5.50;;;16.30;99.90;;;;;;5022383;28;20046;-60
2023/05/28 02:11:47;;;;;;;15.73;6.25;;;16.30;99.90;;;;;;5023576;28;20508;-60
2023/05/28 02:14:16;;;;;;;13.73;5.68;;;16.30;99.90;;;;;;5004072;28;20420;-59
2023/05/28 02:16:49;;;;;;;13.00;6.30;;;16.20;99.90;;;;;;5024217;28;20045;-61
2023/05/28 02:19:16;;;;;;;10.40;4.75;;;16.20;99.90;;;;;;5020047;28;20136;-59
2023/05/28 02:21:41;;;;;;;19.92;6.28;;;16.20;99.90;;;;;;5025446;28;20049;-59
2023/05/28 02:24:07;;;;;;;13.45;6.80;;;16.10;99.90;;;;;;5024299;28;20049;-59
2023/05/28 02:26:33;;;;;;;17.77;7.00;;;16.10;99.90;;;;;;5008864;28;20037;-60
2023/05/28 02:28:59;;;;;;;10.43;5.40;;;16.00;99.90;;;;;;5021716;28;20038;-60
2023/05/28 02:31:25;;;;;;;11.10;5.88;;;16.10;99.90;;;;;;5024158;28;20518;-59
2023/05/28 02:33:50;;;;;;;14.55;7.57;;;16.10;99.90;;;;;;5022456;28;20050;-59
2023/05/28 02:36:16;;;;;;;15.68;6.55;;;16.00;99.90;;;;;;5023855;28;20535;-61
2023/05/28 02:38:42;;;;;;;15.43;6.47;;;15.90;99.90;;;;;;5020530;28;20060;-60
2023/05/28 02:41:09;;;;;;;16.30;6.50;;;16.00;99.90;;;;;;5022646;28;20041;-59
2023/05/28 02:43:35;;;;;;;17.17;7.43;;;15.90;99.90;;;;;;5023805;28;20101;-59
2023/05/28 02:46:01;;;;;;;14.95;7.65;;;15.90;99.90;;;;;;5023204;28;20060;-60
2023/05/28 02:48:27;;;;;;;15.27;6.85;;;15.90;99.90;;;;;;5019540;28;20050;-60
2023/05/28 02:50:52;;;;;;;13.63;6.60;;;15.90;99.90;;;;;;5021089;28;20038;-60
2023/05/28 02:53:22;;;;;;;15.23;7.68;;;15.80;99.90;;;;;;5019866;28;20145;-59
2023/05/28 02:55:48;;;;;;;16.20;7.93;;;15.80;99.90;;;;;;5023334;28;20042;-61
2023/05/28 02:58:15;;;;;;;19.83;8.07;;;15.80;99.90;;;;;;5023628;28;20046;-60
2023/05/28 03:00:41;;;;;;;21.00;8.02;;;15.70;99.90;;;;;;5022550;28;20401;-60
2023/05/28 03:03:08;;;;;;;16.90;7.40;;;15.70;99.90;;;;;;5021367;28;20049;-59
2023/05/28 03:05:34;;;;;;;19.75;7.88;;;15.70;99.90;;;;;;5025902;28;20049;-59
2023/05/28 03:08:00;;;;;;;18.75;7.35;;;15.70;99.90;;;;;;5026305;28;20574;-60
2023/05/28 03:10:26;;;;;;;13.50;7.43;;;15.70;99.90;;;;;;5057531;28;20037;-60
2023/05/28 03:12:52;;;;;;;14.00;7.53;;;15.70;99.90;;;;;;5026570;28;20053;-60
2023/05/28 03:15:18;;;;;;;11.90;5.75;;;15.60;99.90;;;;;;5026490;28;20784;-59
2023/05/28 03:17:44;;;;;;;13.02;6.97;;;15.60;99.90;;;;;;5026737;28;20115;-59
2023/05/28 03:20:11;;;;;;;18.02;7.60;;;15.60;99.90;;;;;;5024992;28;20452;-59
2023/05/28 03:22:38;;;;;;;15.18;7.60;;;15.60;99.90;;;;;;5024289;28;20073;-60
2023/05/28 03:25:05;;;;;;;19.83;7.07;;;15.60;99.90;;;;;;5023674;28;20535;-60
2023/05/28 03:27:31;;;;;;;22.25;8.35;;;15.60;99.90;;;;;;5027862;28;20096;-60
2023/05/28 03:29:57;;;;;;;23.13;8.52;;;15.50;99.90;;;;;;5027510;28;20535;-60
2023/05/28 03:32:23;;;;;;;16.05;7.50;;;15.60;99.90;;;;;;5025222;28;20121;-59
2023/05/28 03:34:49;;;;;;;19.90;8.38;;;15.60;99.90;;;;;;5026126;28;20951;-60
2023/05/28 03:37:15;;;;;;;19.17;7.65;;;15.50;99.90;;;;;;5025062;28;20104;-60
2023/05/28 03:39:41;;;;;;;13.75;7.88;;;15.50;99.90;;;;;;5024285;28;20181;-60
2023/05/28 03:42:07;;;;;;;20.02;10.02;;;15.50;99.90;;;;;;5024212;28;20926;-59
2023/05/28 03:44:34;;;;;;;19.25;9.35;;;15.60;99.90;;;;;;5027156;28;20073;-59
2023/05/28 03:47:00;;;;;;;20.92;7.60;;;15.50;99.90;;;;;;5025396;28;20053;-60
2023/05/28 03:49:26;;;;;;;19.15;8.90;;;15.50;99.90;;;;;;5024437;28;20129;-59
2023/05/28 03:51:52;;;;;;;21.70;8.73;;;15.50;99.90;;;;;;5025794;28;20182;-59
2023/05/28 03:54:17;;;;;;;14.82;7.47;;;15.50;99.90;;;;;;5022523;28;20141;-59
2023/05/28 03:56:43;;;;;;;16.33;7.13;;;15.50;99.90;;;;;;5021967;28;20038;-59
2023/05/28 03:59:09;;;;;;;18.88;8.68;;;15.50;99.90;;;;;;5025015;28;20053;-59
2023/05/28 04:01:36;;;;;;;16.73;8.10;;;15.50;99.90;;;;;;5025057;28;20120;-59
2023/05/28 04:04:03;;;;;;;23.45;8.40;;;15.50;99.90;;;;;;5024744;28;20076;-59
2023/05/28 04:06:30;;;;;;;19.02;8.55;;;15.50;99.90;;;;;;5024988;28;20060;-59
2023/05/28 04:08:56;;;;;;;14.23;8.13;;;15.40;99.90;;;;;;5025661;28;20057;-61
2023/05/28 04:11:24;;;;;;;16.20;7.43;;;15.40;99.90;;;;;;5023798;28;20053;-59
2023/05/28 04:13:53;;;;;;;12.63;6.18;;;15.30;99.90;;;;;;5024483;28;20053;-59
2023/05/28 04:16:22;;;;;;;23.15;8.60;;;15.30;99.90;;;;;;5023857;28;20128;-60
2023/05/28 04:18:48;;;;;;;17.10;7.20;;;15.20;99.90;;;;;;5026614;28;20045;-60
2023/05/28 04:21:15;;;;;;;15.32;8.45;;;15.20;99.90;;;;;;5027723;28;20669;-60
2023/05/28 04:23:40;;;;;;;19.55;7.65;;;15.20;99.90;;;;;;5024888;28;20091;-59
2023/05/28 04:26:09;;;;;;;15.07;7.03;;;15.20;99.90;;;;;;5023341;28;20052;-60
2023/05/28 04:28:36;;;;;;;28.73;9.60;;;15.10;99.90;;;;;;5023222;28;20104;-60
2023/05/28 04:31:03;;;;;;;18.27;6.80;;;15.10;99.90;;;;;;5025956;28;20108;-60
2023/05/28 04:33:29;;;;;;;19.75;7.97;;;15.10;99.90;;;;;;5025427;28;20509;-59
2023/05/28 04:35:58;;;;;;;20.95;7.68;;;15.10;99.90;;;;;;5023467;28;20049;-60
2023/05/28 04:38:24;;;;;;;21.20;7.60;;;15.10;99.90;;;;;;5024690;28;20042;-59
2023/05/28 04:40:50;;;;;;;20.40;7.55;;;15.10;99.90;;;;;;5024241;28;20192;-59
2023/05/28 04:43:16;;;;;;;17.58;9.23;;;15.10;99.90;;;;;;5024286;28;20037;-60
2023/05/28 04:45:43;;;;;;;14.20;7.00;;;15.10;99.90;;;;;;5023556;28;20533;-59
2023/05/28 04:48:12;;;;;;;13.65;6.97;;;15.10;99.90;;;;;;5023238;28;20044;-59
2023/05/28 04:50:39;;;;;;;16.20;10.25;;;15.00;99.90;;;;;;5023756;28;20077;-59
2023/05/28 04:53:04;;;;;;;16.58;8.10;;;15.10;99.90;;;;;;5025454;28;20042;-59
2023/05/28 04:55:30;;;;;;;16.05;7.38;;;15.10;99.90;;;;;;5022794;28;20037;-60
2023/05/28 04:57:56;;;;;;;18.10;8.25;;;15.00;99.90;;;;;;5020849;28;20048;-59
2023/05/28 05:00:23;;;;;;;18.17;8.30;;;15.00;99.90;;;;;;5021082;28;20239;-59
2023/05/28 05:02:50;;;;;;;19.42;7.57;;;15.00;99.90;;;;;;5021451;28;20526;-59
2023/05/28 05:05:16;;;;;;;17.50;9.45;;;15.10;99.90;;;;;;5023827;28;20638;-60
2023/05/28 05:07:42;;;;;;;24.75;8.32;;;15.10;99.90;;;;;;5025849;28;20054;-59
2023/05/28 05:10:09;;;;;;;22.58;7.97;;;15.00;99.90;;;;;;5021624;28;20045;-59
2023/05/28 05:12:36;;;;;;;18.48;9.32;;;15.00;99.90;;;;;;5024726;28;20536;-59
2023/05/28 05:15:03;;;;;;;18.42;8.30;;;15.00;99.90;;;;;;5019821;28;20046;-59
2023/05/28 05:17:30;;;;;;;23.48;9.23;;;15.00;99.90;;;;;;5024511;28;20122;-59
2023/05/28 05:19:56;;;;;;;13.45;6.50;;;15.10;99.90;;;;;;5022859;28;20475;-59
2023/05/28 05:22:22;;;;;;;19.65;7.25;;;15.10;99.90;;;;;;5023238;28;20095;-60
2023/05/28 05:24:48;;;;;;;16.92;8.50;;;15.00;99.90;;;;;;5023744;28;20053;-59
2023/05/28 05:27:14;;;;;;;30.73;9.45;;;15.00;99.90;;;;;;5022774;28;20046;-59
2023/05/28 05:29:40;;;;;;;13.43;6.60;;;15.00;99.90;;;;;;5024966;28;20485;-61
2023/05/28 05:32:06;;;;;;;21.98;9.52;;;15.00;99.90;;;;;;5025676;28;20405;-60
2023/05/28 05:34:32;;;;;;;16.80;6.93;;;15.10;99.90;;;;;;5024860;28;20045;-59
2023/05/28 05:36:58;;;;;;;18.95;8.95;;;15.10;99.90;;;;;;5025019;28;20511;-59
2023/05/28 05:39:24;;;;;;;17.80;8.52;;;15.10;99.90;;;;;;5025473;28;20150;-60
2023/05/28 05:41:50;;;;;;;17.88;8.15;;;15.10;99.90;;;;;;5025544;28;20075;-59
2023/05/28 05:44:16;;;;;;;24.50;9.70;;;15.20;99.90;;;;;;5024721;28;20045;-59
2023/05/28 05:46:42;;;;;;;19.58;7.78;;;15.20;99.90;;;;;;5024656;28;20416;-60
2023/05/28 05:49:08;;;;;;;19.27;8.15;;;15.20;99.90;;;;;;5025663;28;20558;-60
2023/05/28 05:51:35;;;;;;;19.20;7.90;;;15.20;99.90;;;;;;5056626;28;20152;-60
2023/05/28 05:54:01;;;;;;;19.42;9.30;;;15.20;99.90;;;;;;5025384;28;20049;-59
2023/05/28 05:56:27;;;;;;;23.80;9.00;;;15.30;99.90;;;;;;5026569;28;20331;-60
2023/05/28 05:58:53;;;;;;;17.33;7.75;;;15.30;99.90;;;;;;5026116;28;20052;-59
2023/05/28 06:01:20;;;;;;;22.92;8.75;;;15.30;99.90;;;;;;5056999;28;20044;-59
2023/05/28 06:03:46;;;;;;;20.55;8.38;;;15.30;99.90;;;;;;5024516;28;20085;-59
2023/05/28 06:06:12;;;;;;;32.65;8.50;;;15.40;99.90;;;;;;5025581;28;20478;-59
2023/05/28 06:08:39;;;;;;;21.40;8.15;;;15.40;99.90;;;;;;5025206;28;20117;-59
2023/05/28 06:11:05;;;;;;;23.52;9.13;;;15.40;99.90;;;;;;5040959;28;20045;-59
2023/05/28 06:13:31;;;;;;;21.42;8.82;;;15.40;99.90;;;;;;5027584;28;20489;-59
2023/05/28 06:15:57;;;;;;;14.60;6.40;;;15.50;99.90;;;;;;5024620;28;20527;-59
2023/05/28 06:18:23;;;;;;;18.65;7.95;;;15.50;99.90;;;;;;5008354;28;20091;-59
2023/05/28 06:20:49;;;;;;;17.67;7.55;;;15.50;99.90;;;;;;5022616;28;20037;-59
2023/05/28 06:23:16;;;;;;;16.98;8.70;;;15.50;99.90;;;;;;5023446;28;20042;-61
2023/05/28 06:25:43;;;;;;;16.10;8.05;;;15.50;99.90;;;;;;5024511;28;20046;-60
2023/05/28 06:28:10;;;;;;;11.15;5.30;;;15.50;99.90;;;;;;5024781;28;20085;-60
2023/05/28 06:30:36;;;;;;;19.45;10.45;;;15.50;99.90;;;;;;5024822;28;20119;-60
2023/05/28 06:33:01;;;;;;;17.65;7.65;;;15.50;99.90;;;;;;5024152;28;20045;-60
2023/05/28 06:35:27;;;;;;;13.80;7.28;;;15.50;99.90;;;;;;5023857;28;20049;-60
2023/05/28 06:37:53;;;;;;;18.52;8.65;;;15.60;99.90;;;;;;5022167;28;20046;-60
2023/05/28 06:40:19;;;;;;;21.85;9.23;;;15.70;99.90;;;;;;5023869;28;20095;-60
2023/05/28 06:42:44;;;;;;;19.65;8.40;;;15.70;99.90;;;;;;5024668;28;20519;-60
2023/05/28 06:45:11;;;;;;;15.10;7.40;;;15.70;99.90;;;;;;5024975;28;20420;-60
2023/05/28 06:47:36;;;;;;;16.85;8.63;;;15.60;99.90;;;;;;5022700;28;20053;-61
2023/05/28 06:50:02;;;;;;;16.92;9.45;;;15.70;99.90;;;;;;5024571;28;20072;-61
2023/05/28 06:52:28;;;;;;;17.35;7.47;;;15.70;99.90;;;;;;5048760;28;21643;-61
2023/05/28 06:54:54;;;;;;;13.05;7.35;;;15.80;99.90;;;;;;5023033;28;20527;-59
2023/05/28 06:57:20;;;;;;;15.82;5.95;;;15.80;99.90;;;;;;5022912;28;20137;-59
2023/05/28 06:59:46;;;;;;;17.38;8.07;;;15.80;99.90;;;;;;5024427;28;22457;-60
2023/05/28 07:02:12;;;;;;;14.02;7.90;;;15.80;99.90;;;;;;5022494;28;20049;-61
2023/05/28 07:04:38;;;;;;;17.08;8.65;;;15.90;99.90;;;;;;5023611;28;20041;-60
2023/05/28 07:07:05;;;;;;;27.08;9.32;;;15.90;99.90;;;;;;5023279;28;20566;-60
2023/05/28 07:09:30;;;;;;;18.95;8.85;;;16.10;99.90;;;;;;5023268;28;20073;-61
2023/05/28 07:11:56;;;;;;;14.70;8.15;;;15.90;99.90;;;;;;5021956;28;20046;-61
2023/05/28 07:14:22;;;;;;;18.85;8.90;;;15.90;99.90;;;;;;5024029;28;20124;-61
2023/05/28 07:16:48;;;;;;;19.63;7.57;;;16.00;99.90;;;;;;5023206;28;20069;-61
2023/05/28 07:19:14;;;;;;;16.63;8.43;;;16.00;99.90;;;;;;5022433;28;20412;-61
2023/05/28 07:21:40;;;;;;;15.10;6.97;;;16.10;99.90;;;;;;5020761;28;20042;-60
2023/05/28 07:24:06;;;;;;;14.55;7.05;;;16.20;99.90;;;;;;5053408;28;20049;-60
2023/05/28 07:26:33;;;;;;;24.15;8.45;;;16.20;99.90;;;;;;5024247;28;20054;-60
2023/05/28 07:28:59;;;;;;;20.05;7.35;;;16.20;99.90;;;;;;5022622;28;20044;-61
2023/05/28 07:31:25;;;;;;;15.80;8.07;;;16.30;99.90;;;;;;5024017;28;20171;-62
2023/05/28 07:33:50;;;;;;;19.33;8.75;;;16.30;99.90;;;;;;5023000;28;20042;-60
2023/05/28 07:36:16;;;;;;;11.40;7.05;;;16.40;99.90;;;;;;5023886;28;20046;-61
2023/05/28 07:38:45;;;;;;;19.83;6.78;;;16.40;99.90;;;;;;5021128;28;20037;-60
2023/05/28 07:41:11;;;;;;;16.08;7.13;;;16.50;99.90;;;;;;5021787;28;20047;-61
2023/05/28 07:43:36;;;;;;;25.02;11.63;;;16.50;99.90;;;;;;5022134;28;20625;-60
2023/05/28 07:46:02;;;;;;;20.15;7.55;;;16.60;99.90;;;;;;5021554;28;20058;-60
2023/05/28 07:48:28;;;;;;;17.05;7.20;;;16.60;99.90;;;;;;5021272;28;20046;-60
2023/05/28 07:50:54;;;;;;;14.13;7.38;;;16.60;99.90;;;;;;5021930;28;20846;-60
2023/05/28 07:53:19;;;;;;;17.40;8.77;;;16.70;99.90;;;;;;5027359;28;20044;-61
2023/05/28 07:55:45;;;;;;;18.92;8.30;;;16.70;99.90;;;;;;5027678;28;20128;-61
2023/05/28 07:58:12;;;;;;;17.42;8.40;;;16.70;99.90;;;;;;5027422;28;20080;-60
2023/05/28 08:00:39;;;;;;;12.45;5.18;;;16.80;99.90;;;;;;5026818;28;20062;-60
2023/05/28 08:03:05;;;;;;;21.60;8.43;;;16.80;99.90;;;;;;5020349;28;20050;-60
2023/05/28 08:05:31;;;;;;;21.67;7.25;;;16.80;99.90;;;;;;5023529;28;20052;-62
2023/05/28 08:07:57;;;;;;;12.95;7.05;;;16.90;99.90;;;;;;5026678;28;20049;-60
2023/05/28 08:10:23;;;;;;;17.85;7.40;;;16.90;99.90;;;;;;5023548;28;20045;-60
2023/05/28 08:12:49;;;;;;;17.33;7.57;;;16.90;99.90;;;;;;5025006;28;20121;-61
2023/05/28 08:15:15;;;;;;;18.65;8.50;;;17.00;99.90;;;;;;5025878;28;21182;-61
2023/05/28 08:17:40;;;;;;;15.65;7.65;;;17.10;99.90;;;;;;5024156;28;20046;-60
2023/05/28 08:20:08;;;;;;;16.88;8.18;;;17.10;99.90;;;;;;5054197;28;20046;-61
2023/05/28 08:22:33;;;;;;;11.80;7.32;;;17.10;99.90;;;;;;5023986;28;20050;-61
2023/05/28 08:24:59;;;;;;;22.33;7.97;;;17.20;99.90;;;;;;5057507;28;20378;-60
2023/05/28 08:27:25;;;;;;;14.52;5.13;;;17.20;99.90;;;;;;5025092;28;20052;-60
2023/05/28 08:29:51;;;;;;;17.05;8.50;;;17.30;99.90;;;;;;5022689;28;20042;-61
2023/05/28 08:32:17;;;;;;;14.88;7.28;;;17.30;99.90;;;;;;5024110;28;20531;-62
2023/05/28 08:34:43;;;;;;;14.55;7.00;;;17.30;99.90;;;;;;5026692;28;20049;-60
2023/05/28 08:37:09;;;;;;;15.43;7.00;;;17.40;99.90;;;;;;5026312;28;20498;-61
2023/05/28 08:39:35;;;;;;;15.43;8.18;;;17.40;99.90;;;;;;5025590;28;20034;-60
2023/05/28 08:42:02;;;;;;;14.68;6.55;;;17.50;99.90;;;;;;5024970;28;20042;-61
2023/05/28 08:44:27;;;;;;;15.88;7.25;;;17.50;99.90;;;;;;5024283;28;20666;-62
2023/05/28 08:46:55;;;;;;;13.63;6.60;;;17.60;99.90;;;;;;5023800;28;20259;-62
2023/05/28 08:49:31;;;;;;;16.27;8.82;;;17.60;99.90;;;;;;5025007;28;20149;-60
2023/05/28 08:52:00;;;;;;;17.50;6.97;;;17.70;99.90;;;;;;5025705;28;20076;-60
2023/05/28 08:54:27;;;;;;;15.65;6.70;;;17.70;99.90;;;;;;5024196;28;20449;-60
2023/05/28 08:56:54;;;;;;;13.43;7.10;;;17.80;99.90;;;;;;5024510;28;20045;-59
2023/05/28 08:59:21;;;;;;;13.35;6.85;;;17.30;99.90;;;;;;5024005;28;20050;-60
2023/05/28 09:01:47;;;;;;;11.00;5.60;;;17.80;99.90;;;;;;5021220;28;20042;-60
2023/05/28 09:04:13;;;;;;;16.50;6.63;;;18.00;99.90;;;;;;5022296;28;20125;-61
2023/05/28 09:06:39;;;;;;;18.27;7.88;;;18.00;99.90;;;;;;5023524;28;20046;-61
2023/05/28 09:09:07;;;;;;;15.45;7.05;;;18.00;99.90;;;;;;5025805;28;20077;-60
2023/05/28 09:11:33;;;;;;;13.40;6.32;;;18.10;99.90;;;;;;5022023;28;20037;-59
2023/05/28 09:14:10;;;;;;;17.17;6.35;;;18.10;99.90;;;;;;5022932;28;20050;-61
2023/05/28 09:16:39;;;;;;;15.10;6.50;;;18.10;99.90;;;;;;5022696;28;20432;-60
2023/05/28 09:19:06;;;;;;;16.45;7.05;;;18.20;99.90;;;;;;5022436;28;20531;-60
2023/05/28 09:21:36;;;;;;;10.55;5.70;;;18.20;99.90;;;;;;5026517;28;20034;-61
2023/05/28 09:24:03;;;;;;;18.75;7.78;;;18.30;99.90;;;;;;5021208;28;20080;-60
2023/05/28 09:26:30;;;;;;;16.95;6.63;;;18.30;99.90;;;;;;5055103;28;20038;-60
2023/05/28 09:28:56;;;;;;;15.65;7.13;;;18.30;99.90;;;;;;5022995;28;20042;-60
2023/05/28 09:31:34;;;;;;;21.30;6.75;;;18.40;99.90;;;;;;5053877;28;20516;-60
2023/05/28 09:34:04;;;;;;;11.93;6.20;;;18.50;99.90;;;;;;5051130;28;20568;-60
2023/05/28 09:36:31;;;;;;;18.08;4.88;;;18.50;99.90;;;;;;5022484;28;20048;-60
2023/05/28 09:38:57;;;;;;;17.50;7.03;;;18.60;99.90;;;;;;5023451;28;20444;-59
2023/05/28 09:41:33;;;;;;;15.00;5.80;;;18.60;99.90;;;;;;5023207;28;20038;-59
2023/05/28 09:44:04;;;;;;;11.43;6.68;;;18.60;99.90;;;;;;5021410;28;20053;-60
2023/05/28 09:46:34;;;;;;;13.63;6.97;;;18.70;99.90;;;;;;5020166;28;20491;-60
2023/05/28 09:49:01;;;;;;;18.90;5.40;;;18.80;99.90;;;;;;5024172;28;20551;-60
2023/05/28 09:51:31;;;;;;;10.57;5.15;;;18.70;99.90;;;;;;5019991;28;20069;-60
2023/05/28 09:54:00;;;;;;;17.23;6.57;;;18.80;99.90;;;;;;5018843;28;20041;-61
2023/05/28 09:56:31;;;;;;;14.98;6.45;;;18.90;99.90;;;;;;5021471;28;20057;-60
2023/05/28 09:59:02;;;;;;;13.18;6.70;;;18.90;99.90;;;;;;5021489;28;20038;-61
2023/05/28 10:01:40;;;;;;;12.70;6.30;;;19.00;99.90;;;;;;5024998;28;20037;-60
2023/05/28 10:04:10;;;;;;;10.15;5.60;;;19.10;99.90;;;;;;5022069;28;20047;-61
2023/05/28 10:06:39;;;;;;;12.90;6.70;;;19.10;99.90;;;;;;5024265;28;20054;-61
2023/05/28 10:09:06;;;;;;;16.08;7.38;;;19.20;99.90;;;;;;5019580;28;20116;-60
2023/05/28 10:11:41;;;;;;;7.35;4.25;;;19.20;99.90;;;;;;5014850;28;20918;-61
2023/05/28 10:14:08;;;;;;;10.65;5.80;;;19.30;99.90;;;;;;5020459;28;20054;-60
2023/05/28 10:16:35;;;;;;;13.40;5.90;;;19.30;99.90;;;;;;5023099;28;20111;-61
2023/05/28 10:19:02;;;;;;;9.93;5.80;;;19.40;99.90;;;;;;5016411;28;20042;-60
2023/05/28 10:21:28;;;;;;;12.95;6.10;;;19.50;99.90;;;;;;5023066;28;20120;-61
2023/05/28 10:23:55;;;;;;;11.88;4.80;;;19.50;99.90;;;;;;5019480;28;20057;-60
2023/05/28 10:26:21;;;;;;;12.80;5.47;;;19.50;99.90;;;;;;5021426;28;20048;-60
2023/05/28 10:28:56;;;;;;;13.80;5.75;;;19.60;99.90;;;;;;5025006;28;20053;-60
2023/05/28 10:31:23;;;;;;;13.85;6.15;;;19.70;99.90;;;;;;5021542;28;20049;-60
2023/05/28 10:33:49;;;;;;;12.48;6.40;;;19.70;99.90;;;;;;5022600;28;20054;-60
2023/05/28 10:36:16;;;;;;;7.57;4.30;;;19.70;99.90;;;;;;5022898;28;20156;-60
2023/05/28 10:38:46;;;;;;;11.68;5.95;;;19.70;99.90;;;;;;5022053;28;20048;-60
2023/05/28 10:41:17;;;;;;;10.50;6.00;;;19.90;99.90;;;;;;5024420;28;20132;-60
2023/05/28 10:43:47;;;;;;;13.43;5.45;;;19.90;99.90;;;;;;5021791;28;20099;-60
2023/05/28 10:46:17;;;;;;;8.30;4.38;;;19.90;99.90;;;;;;5036878;28;20049;-61
2023/05/28 10:49:20;;;;;;;10.32;4.38;;;20.00;99.90;;;;;;5020979;28;20066;-61
2023/05/28 10:52:02;;;;;;;11.23;4.70;;;20.10;99.90;;;;;;5004318;28;20073;-61
2023/05/28 10:54:35;;;;;;;;;;;20.10;99.90;;;;;;5022664;28;20637;-61
2023/05/28 10:57:20;;;;;;;7.65;4.25;;;20.20;99.90;;;;;;5021598;28;20439;-61
2023/05/28 10:59:52;;;;;;;9.35;4.10;;;20.20;99.90;;;;;;5020121;28;20048;-61
2023/05/28 11:02:20;;;;;;;9.30;3.72;;;20.20;99.90;;;;;;5019699;28;20042;-61
2023/05/28 11:04:50;;;;;;;10.20;4.07;;;20.30;99.90;;;;;;5024458;28;20050;-61
2023/05/28 11:07:16;;;;;;;9.55;5.63;;;20.30;99.90;;;;;;5022772;28;20065;-61
2023/05/28 11:09:46;;;;;;;9.50;3.72;;;20.40;99.90;;;;;;5025355;28;20096;-61
2023/05/28 11:12:12;;;;;;;9.38;4.72;;;20.50;99.90;;;;;;5022725;28;20042;-60
2023/05/28 11:14:39;;;;;;;11.63;4.80;;;20.50;99.90;;;;;;5024660;28;20050;-60
2023/05/28 11:17:10;;;;;;;7.82;3.72;;;20.90;99.90;;;;;;5022426;28;20081;-61
2023/05/28 11:19:45;;;;;;;9.43;4.50;;;20.50;99.90;;;;;;5022503;28;20104;-61
2023/05/28 11:22:11;;;;;;;7.93;4.00;;;20.60;99.90;;;;;;5024546;28;20046;-61
2023/05/28 11:25:04;;;;;;;10.25;4.40;;;20.60;99.90;;;;;;5023240;28;20081;-60
2023/05/28 11:27:32;;;;;;;13.65;5.65;;;20.70;99.90;;;;;;5027480;28;20034;-61
2023/05/28 11:30:03;;;;;;;11.88;5.07;;;20.70;99.90;;;;;;5027039;28;20045;-61
2023/05/28 11:32:31;;;;;;;17.02;8.35;;;20.80;99.50;;;;;;5026244;28;20044;-61
2023/05/28 11:34:58;;;;;;;9.68;5.68;;;20.80;99.30;;;;;;5023804;28;20054;-60
2023/05/28 11:37:28;;;;;;;7.65;4.53;;;20.80;99.00;;;;;;5026630;28;20045;-60
2023/05/28 11:39:56;;;;;;;11.10;3.58;;;20.80;98.70;;;;;;5026685;28;20124;-61
2023/05/28 11:42:23;;;;;;;15.27;5.43;;;20.90;98.50;;;;;;5025544;28;20041;-61
2023/05/28 11:44:50;;;;;;;10.35;5.45;;;21.00;98.40;;;;;;5024721;28;20054;-60
2023/05/28 11:47:17;;;;;;;12.65;7.43;;;21.00;98.10;;;;;;5026027;28;20053;-60
2023/05/28 11:49:43;;;;;;;10.32;4.03;;;20.90;93.40;;;;;;5026787;28;20042;-60
2023/05/28 11:52:24;;;;;;;8.43;4.63;;;21.00;93.50;;;;;;5024782;28;20053;-60
2023/05/28 11:55:09;;;;;;;11.13;4.00;;;21.00;93.20;;;;;;5027269;28;20029;-59
2023/05/28 11:57:38;;;;;;;13.15;5.35;;;21.10;92.70;;;;;;5024807;28;20067;-61
2023/05/28 12:00:15;;;;;;;12.70;4.00;;;21.10;92.50;;;;;;5027937;28;20052;-60
2023/05/28 12:02:45;;;;;;;9.13;4.22;;;21.20;92.50;;;;;;5023447;28;20156;-60
2023/05/28 12:05:11;;;;;;;10.30;4.93;;;21.20;92.30;;;;;;5026069;28;20065;-60
2023/05/28 12:07:37;;;;;;;12.00;4.80;;;21.20;92.20;;;;;;5023060;28;20037;-61
2023/05/28 12:10:11;;;;;;;8.02;4.32;;;21.30;92.00;;;;;;5027088;28;20045;-60
2023/05/28 12:12:45;;;;;;;8.63;3.90;;;21.30;92.00;;;;;;5026605;28;20543;-60
2023/05/28 12:15:11;;;;;;;8.30;4.15;;;21.40;91.90;;;;;;5024801;28;20483;-59
2023/05/28 12:17:41;;;;;;;11.82;4.93;;;21.30;91.70;;;;;;5024351;28;20059;-61
2023/05/28 12:20:29;;;;;;;9.50;4.97;;;21.40;91.70;;;;;;5026077;28;20046;-59
2023/05/28 12:23:08;;;;;;;9.82;3.85;;;21.50;91.50;;;;;;5026950;28;20053;-59
2023/05/28 12:25:41;;;;;;;9.38;3.83;;;21.50;90.90;;;;;;5024957;28;20132;-60
2023/05/28 12:28:07;;;;;;;8.93;5.00;;;21.50;90.80;;;;;;5026316;28;20052;-60
2023/05/28 12:30:33;;;;;;;8.07;3.28;;;21.60;90.80;;;;;;5026043;28;20420;-59
2023/05/28 12:32:59;;;;;;;6.35;4.40;;;21.60;90.80;;;;;;5024653;28;20551;-60
2023/05/28 12:35:25;;;;;;;7.60;3.42;;;21.60;90.90;;;;;;5021347;28;20046;-62
2023/05/28 12:37:50;;;;;;;9.57;4.63;;;21.70;90.70;;;;;;5019886;28;20532;-59
2023/05/28 12:40:16;;;;;;;14.70;4.40;;;21.80;90.60;;;;;;5020280;28;20050;-60